createdAt,value
2022-10-09T00:01:38.062Z,12.20
2022-10-09T00:06:40.846Z,12.20
2022-10-09T00:11:43.580Z,12.20
2022-10-09T00:16:46.400Z,12.10
2022-10-09T00:21:49.205Z,12.10
2022-10-09T00:26:51.942Z,12.00
2022-10-09T00:31:54.708Z,12.00
2022-10-09T00:36:57.545Z,11.90
2022-10-09T00:42:01.039Z,12.00
2022-10-09T00:47:03.881Z,12.00
2022-10-09T00:52:07.617Z,12.00
2022-10-09T00:57:10.576Z,12.00
2022-10-09T01:02:13.447Z,11.90
2022-10-09T01:07:43.003Z,11.90
2022-10-09T01:13:04.803Z,11.90
2022-10-09T01:18:22.769Z,11.80
2022-10-09T01:23:34.815Z,11.80
2022-10-09T01:28:39.128Z,11.80
2022-10-09T01:33:42.006Z,11.80
2022-10-09T01:38:45.770Z,11.90
2022-10-09T01:43:48.548Z,11.90
2022-10-09T01:49:13.745Z,12.00
2022-10-09T01:54:22.693Z,12.30
2022-10-09T01:59:27.110Z,12.60
2022-10-09T02:04:30.984Z,12.90
2022-10-09T02:09:34.890Z,12.90
2022-10-09T02:14:37.852Z,12.90
2022-10-09T02:20:05.136Z,12.80
2022-10-09T02:25:08.233Z,12.70
2022-10-09T02:30:11.402Z,12.80
2022-10-09T02:35:14.307Z,12.90
2022-10-09T02:40:17.067Z,13.00
2022-10-09T02:45:19.883Z,13.10
2022-10-09T02:50:36.975Z,13.10
2022-10-09T02:55:53.411Z,13.10
2022-10-09T03:00:56.224Z,13.10
2022-10-09T03:06:09.362Z,13.10
2022-10-09T03:11:14.182Z,13.20
2022-10-09T03:16:22.398Z,13.40
2022-10-09T03:21:27.075Z,13.50
2022-10-09T03:26:30.426Z,13.80
2022-10-09T03:31:51.226Z,14.20
2022-10-09T03:36:54.876Z,14.50
2022-10-09T03:41:57.962Z,14.80
2022-10-09T03:47:00.840Z,15.00
2022-10-09T03:52:03.625Z,15.10
2022-10-09T03:57:06.433Z,15.10
2022-10-09T04:02:09.330Z,15.00
2022-10-09T04:07:12.220Z,15.00
2022-10-09T04:12:15.255Z,15.00
2022-10-09T04:17:18.339Z,15.10
2022-10-09T04:22:22.190Z,15.10
2022-10-09T04:27:25.287Z,15.30
2022-10-09T04:32:28.252Z,15.30
2022-10-09T04:37:31.384Z,15.40
2022-10-09T04:42:34.391Z,15.50
2022-10-09T04:47:38.100Z,15.50
2022-10-09T04:52:41.057Z,15.40
2022-10-09T04:57:44.629Z,15.30
2022-10-09T05:02:47.982Z,15.30
2022-10-09T05:07:51.492Z,15.30
2022-10-09T05:12:54.351Z,15.30
2022-10-09T05:17:57.119Z,15.30
2022-10-09T05:22:59.892Z,15.30
2022-10-09T05:28:04.849Z,15.20
2022-10-09T05:33:07.644Z,15.20
2022-10-09T05:38:10.462Z,15.30
2022-10-09T05:43:13.175Z,15.30
2022-10-09T05:48:15.874Z,15.40
2022-10-09T05:53:19.682Z,15.40
2022-10-09T05:58:22.504Z,15.40
2022-10-09T06:03:25.477Z,15.40
2022-10-09T06:08:28.651Z,15.50
2022-10-09T06:13:31.393Z,15.40
2022-10-09T06:18:34.310Z,15.40
2022-10-09T06:23:37.024Z,15.50
2022-10-09T06:28:40.515Z,15.60
2022-10-09T06:33:44.919Z,15.80
2022-10-09T06:38:48.329Z,16.00
2022-10-09T06:43:59.346Z,16.10
2022-10-09T06:49:02.927Z,16.30
2022-10-09T06:54:11.664Z,16.40
2022-10-09T06:59:14.433Z,16.70
2022-10-09T07:04:18.324Z,16.90
2022-10-09T07:09:21.184Z,17.10
2022-10-09T07:14:24.069Z,17.20
2022-10-09T07:19:26.913Z,17.30
2022-10-09T07:24:29.749Z,17.50
2022-10-09T07:29:33.201Z,17.70
2022-10-09T07:34:35.935Z,17.90
2022-10-09T07:39:41.641Z,18.00
2022-10-09T07:44:47.639Z,18.20
2022-10-09T07:49:50.414Z,18.40
2022-10-09T07:54:53.021Z,18.50
2022-10-09T07:59:55.767Z,18.70
2022-10-09T08:04:58.497Z,18.80
2022-10-09T08:10:01.358Z,19.00
2022-10-09T08:15:04.525Z,19.20
2022-10-09T08:20:07.867Z,19.40
2022-10-09T08:25:10.593Z,19.40
2022-10-09T08:30:13.400Z,19.50
2022-10-09T08:35:16.268Z,19.50
2022-10-09T08:40:21.586Z,19.60
2022-10-09T08:45:24.664Z,19.70
2022-10-09T08:50:34.441Z,19.90
2022-10-09T08:55:44.019Z,19.90
2022-10-09T09:00:55.158Z,20.10
2022-10-09T09:06:07.010Z,20.30
2022-10-09T09:11:34.559Z,20.30
2022-10-09T09:16:52.104Z,20.50
2022-10-09T09:21:55.026Z,20.50
2022-10-09T09:27:02.713Z,20.60
2022-10-09T09:32:13.564Z,20.60
2022-10-09T09:37:17.155Z,20.60
2022-10-09T09:42:20.887Z,20.70
2022-10-09T09:47:34.242Z,20.70
2022-10-09T09:52:43.172Z,20.70
2022-10-09T09:57:46.216Z,20.70
2022-10-09T10:02:50.145Z,20.70
2022-10-09T10:07:53.743Z,20.90
2022-10-09T10:12:58.745Z,21.20
2022-10-09T10:18:07.667Z,21.40
2022-10-09T10:23:34.892Z,21.50
2022-10-09T10:29:00.459Z,21.60
2022-10-09T10:34:05.539Z,21.60
2022-10-09T10:39:18.357Z,21.80
2022-10-09T10:44:50.373Z,22.20
2022-10-09T10:49:53.358Z,22.80
2022-10-09T10:55:22.247Z,23.70
2022-10-09T11:00:26.486Z,24.30
2022-10-09T11:05:53.797Z,25.10
2022-10-09T11:11:21.342Z,25.60
2022-10-09T11:16:27.364Z,25.70
2022-10-09T11:21:45.140Z,25.70
2022-10-09T11:27:16.303Z,25.60
2022-10-09T11:32:27.114Z,25.70
2022-10-09T11:37:35.187Z,25.90
2022-10-09T11:42:37.931Z,26.20
2022-10-09T11:48:03.932Z,26.60
2022-10-09T11:53:27.825Z,26.90
2022-10-09T11:58:30.640Z,26.80
2022-10-09T12:03:37.967Z,27.00
2022-10-09T12:08:55.161Z,26.50
2022-10-09T12:14:03.455Z,25.60
2022-10-09T12:19:18.415Z,24.90
2022-10-09T12:24:25.622Z,24.40
2022-10-09T12:29:49.614Z,23.80
2022-10-09T12:34:53.142Z,23.40
2022-10-09T12:40:08.983Z,23.00
2022-10-09T12:45:31.047Z,22.70
2022-10-09T12:50:34.835Z,22.50
2022-10-09T12:55:43.384Z,22.30
2022-10-09T13:00:52.315Z,22.20
2022-10-09T13:05:56.957Z,22.00
2022-10-09T13:11:10.713Z,21.90
2022-10-09T13:16:13.380Z,21.80
2022-10-09T13:21:16.243Z,21.80
2022-10-09T13:26:28.140Z,21.80
2022-10-09T13:31:32.807Z,21.70
2022-10-09T13:36:36.197Z,21.60
2022-10-09T13:41:39.124Z,21.50
2022-10-09T13:46:41.732Z,21.40
2022-10-09T13:51:44.511Z,21.40
2022-10-09T13:56:47.289Z,21.30
2022-10-09T14:01:51.089Z,21.30
2022-10-09T14:06:53.973Z,21.20
2022-10-09T14:11:57.009Z,21.10
2022-10-09T14:16:59.877Z,21.00
2022-10-09T14:22:02.583Z,21.00
2022-10-09T14:27:05.575Z,20.90
2022-10-09T14:32:09.041Z,20.90
2022-10-09T14:37:23.894Z,20.80
2022-10-09T14:42:36.288Z,20.80
2022-10-09T14:47:39.096Z,20.70
2022-10-09T14:52:42.307Z,20.60
2022-10-09T14:57:45.075Z,20.50
2022-10-09T15:02:47.904Z,20.40
2022-10-09T15:07:50.934Z,20.40
2022-10-09T15:12:53.839Z,20.20
2022-10-09T15:17:57.053Z,20.10
2022-10-09T15:22:59.868Z,20.00
2022-10-09T15:28:02.671Z,19.80
2022-10-09T15:33:05.468Z,19.60
2022-10-09T15:38:14.123Z,19.40
2022-10-09T15:43:19.246Z,19.20
2022-10-09T15:48:24.801Z,19.10
2022-10-09T15:53:27.637Z,19.00
2022-10-09T15:58:30.516Z,18.80
2022-10-09T16:03:36.495Z,18.70
2022-10-09T16:08:40.633Z,18.50
2022-10-09T16:13:45.978Z,18.40
2022-10-09T16:18:48.805Z,18.30
2022-10-09T16:23:57.409Z,18.20
2022-10-09T16:29:01.510Z,18.10
2022-10-09T16:34:06.719Z,17.90
2022-10-09T16:39:09.525Z,17.80
2022-10-09T16:44:17.056Z,17.60
2022-10-09T16:49:22.872Z,17.40
2022-10-09T16:54:27.849Z,17.30
2022-10-09T16:59:30.810Z,17.00
2022-10-09T17:04:33.654Z,16.80
2022-10-09T17:09:37.523Z,16.60
2022-10-09T17:14:40.832Z,16.40
2022-10-09T17:19:43.980Z,16.20
2022-10-09T17:24:46.943Z,16.10
2022-10-09T17:29:50.282Z,16.00
2022-10-09T17:34:53.112Z,15.90
2022-10-09T17:39:56.420Z,15.80
2022-10-09T17:44:59.334Z,15.80
2022-10-09T17:50:02.720Z,15.80
2022-10-09T17:55:08.330Z,15.70
2022-10-09T18:00:11.895Z,15.70
2022-10-09T18:05:15.192Z,15.70
2022-10-09T18:10:17.925Z,15.70
2022-10-09T18:15:20.757Z,15.80
2022-10-09T18:20:23.489Z,15.80
2022-10-09T18:25:26.077Z,15.90
2022-10-09T18:30:29.440Z,15.90
2022-10-09T18:35:35.375Z,15.80
2022-10-09T18:40:45.234Z,15.70
2022-10-09T18:45:48.533Z,15.60
2022-10-09T18:50:51.369Z,15.60
2022-10-09T18:55:54.270Z,15.60
2022-10-09T19:00:57.108Z,15.60
2022-10-09T19:05:59.988Z,15.50
2022-10-09T19:11:02.814Z,15.50
2022-10-09T19:16:06.253Z,15.40
2022-10-09T19:21:12.934Z,15.30
2022-10-09T19:26:16.557Z,15.20
2022-10-09T19:31:19.840Z,15.00
2022-10-09T19:36:22.665Z,14.90
2022-10-09T19:41:26.023Z,14.80
2022-10-09T19:46:28.752Z,14.80
2022-10-09T19:51:33.550Z,14.70
2022-10-09T19:56:36.937Z,14.60
2022-10-09T20:01:40.450Z,14.60
2022-10-09T20:06:43.731Z,14.70
2022-10-09T20:11:47.408Z,14.70
2022-10-09T20:16:50.298Z,14.60
2022-10-09T20:21:53.133Z,14.60
2022-10-09T20:26:55.935Z,14.50
2022-10-09T20:31:58.747Z,14.40
2022-10-09T20:37:01.353Z,14.20
2022-10-09T20:42:04.298Z,14.00
2022-10-09T20:47:07.633Z,13.80
2022-10-09T20:52:11.868Z,13.60
2022-10-09T20:57:14.731Z,13.50
2022-10-09T21:02:17.536Z,13.40
2022-10-09T21:07:20.331Z,13.20
2022-10-09T21:12:23.130Z,13.10
2022-10-09T21:17:25.839Z,12.90
2022-10-09T21:22:29.052Z,12.80
2022-10-09T21:27:31.880Z,12.70
2022-10-09T21:32:34.740Z,12.60
2022-10-09T21:37:37.818Z,12.50
2022-10-09T21:42:41.020Z,12.40
2022-10-09T21:47:43.759Z,12.30
2022-10-09T21:52:48.442Z,12.20
2022-10-09T21:57:51.904Z,12.20
2022-10-09T22:02:55.172Z,12.20
2022-10-09T22:07:58.033Z,12.10
2022-10-09T22:13:00.901Z,12.20
2022-10-09T22:18:03.615Z,12.20
2022-10-09T22:23:06.417Z,12.20
2022-10-09T22:28:09.228Z,12.20
2022-10-09T22:33:12.035Z,12.10
2022-10-09T22:38:14.808Z,12.10
2022-10-09T22:43:17.573Z,11.90
2022-10-09T22:48:20.350Z,11.80
2022-10-09T22:53:23.070Z,11.70
2022-10-09T22:58:26.303Z,11.60
2022-10-09T23:03:29.173Z,11.50
2022-10-09T23:08:31.950Z,11.40
2022-10-09T23:13:35.340Z,11.30
2022-10-09T23:18:38.909Z,11.10
2022-10-09T23:23:42.880Z,11.10
2022-10-09T23:28:50.744Z,11.00
2022-10-09T23:33:54.862Z,10.90
2022-10-09T23:38:58.826Z,10.80
2022-10-09T23:44:02.372Z,10.70
2022-10-09T23:49:05.202Z,10.70
2022-10-09T23:54:07.986Z,10.70
2022-10-09T23:59:11.315Z,10.70
